Time,TemperatureF,DewpointF,PressureIn,WindDirection,WindDirectionDegrees,WindSpeedMPH,WindSpeedGustMPH,Humidity,HourlyPrecipIn,Conditions,Clouds,dailyrainin,SoftwareType,DateUTC
2013-03-28 00:01:00,42.0,41.0,30.00,North,-999,0.0,0.0,96,0.00,,,0.00,,2013-03-28 07:01:00,
2013-03-28 00:12:00,42.0,41.0,30.00,North,-999,0.0,0.0,96,0.00,,,0.00,,2013-03-28 07:12:00,
2013-03-28 00:22:00,42.0,41.0,30.00,North,-999,0.0,0.0,97,0.00,,,0.00,,2013-03-28 07:22:00,
2013-03-28 00:31:00,41.0,40.0,30.01,North,-999,0.0,0.0,97,0.00,,,0.00,,2013-03-28 07:31:00,
2013-03-28 00:42:00,41.0,40.0,30.01,North,-999,0.0,0.0,97,0.00,,,0.00,,2013-03-28 07:42:00,
2013-03-28 00:52:00,41.0,40.0,30.01,North,-999,0.0,0.0,97,0.00,,,0.00,,2013-03-28 07:52:00,
2013-03-28 01:02:00,41.0,40.0,30.01,North,-999,0.0,0.0,98,0.00,,,0.00,,2013-03-28 08:02:00,
2013-03-28 01:11:00,41.0,40.0,30.01,North,-999,0.0,0.0,98,0.00,,,0.00,,2013-03-28 08:11:00,
2013-03-28 01:21:00,41.0,40.0,30.00,North,-999,0.0,0.0,97,0.00,,,0.00,,2013-03-28 08:21:00,
2013-03-28 01:31:00,40.0,39.0,30.01,North,-999,0.0,0.0,98,0.00,,,0.00,,2013-03-28 08:31:00,
2013-03-28 01:41:00,40.0,39.0,30.01,North,-999,0.0,0.0,98,0.00,,,0.00,,2013-03-28 08:41:00,
2013-03-28 01:52:00,41.0,40.0,30.01,North,-999,0.0,0.0,98,0.00,,,0.00,,2013-03-28 08:52:00,
2013-03-28 02:01:00,41.0,40.0,30.01,North,-999,0.0,0.0,95,0.00,,,0.00,,2013-03-28 09:01:00,
2013-03-28 02:11:00,41.0,40.0,30.01,North,-999,0.0,0.0,95,0.00,,,0.00,,2013-03-28 09:11:00,
2013-03-28 02:22:00,41.0,40.0,30.01,North,-999,0.0,0.0,95,0.00,,,0.00,,2013-03-28 09:22:00,
2013-03-28 02:32:00,40.0,39.0,30.01,North,-999,0.0,0.0,97,0.00,,,0.00,,2013-03-28 09:32:00,
2013-03-28 02:42:00,40.0,39.0,30.02,North,-999,0.0,0.0,97,0.00,,,0.00,,2013-03-28 09:42:00,
2013-03-28 02:52:00,40.0,39.0,30.02,North,-999,0.0,0.0,97,0.00,,,0.00,,2013-03-28 09:52:00,
2013-03-28 03:02:00,41.0,40.0,30.02,SSE,157,0.0,1.0,97,0.00,,,0.00,,2013-03-28 10:02:00,
2013-03-28 03:12:00,41.0,40.0,30.02,SSE,157,0.0,1.0,97,0.00,,,0.00,,2013-03-28 10:12:00,
2013-03-28 03:22:00,41.0,40.0,30.02,North,-999,0.0,0.0,96,0.00,,,0.00,,2013-03-28 10:22:00,
2013-03-28 03:32:00,41.0,40.0,30.02,North,-999,0.0,0.0,96,0.00,,,0.00,,2013-03-28 10:32:00,
2013-03-28 03:52:00,41.0,40.0,30.02,North,-999,0.0,0.0,95,0.00,,,0.00,,2013-03-28 10:52:00,
2013-03-28 04:02:00,40.0,39.0,30.02,North,-999,0.0,0.0,97,0.00,,,0.00,,2013-03-28 11:02:00,
2013-03-28 04:12:00,40.0,39.0,30.02,North,-999,0.0,0.0,97,0.00,,,0.00,,2013-03-28 11:12:00,
2013-03-28 04:22:00,41.0,40.0,30.02,North,-999,0.0,0.0,96,0.00,,,0.00,,2013-03-28 11:22:00,
2013-03-28 04:32:00,41.0,40.0,30.02,North,-999,0.0,0.0,95,0.00,,,0.00,,2013-03-28 11:32:00,
2013-03-28 04:42:00,41.0,40.0,30.02,North,-999,0.0,0.0,95,0.00,,,0.00,,2013-03-28 11:42:00,
2013-03-28 04:52:00,41.0,40.0,30.02,North,-999,0.0,0.0,96,0.00,,,0.00,,2013-03-28 11:52:00,
2013-03-28 05:02:00,41.0,40.0,30.02,North,-999,0.0,0.0,96,0.00,,,0.00,,2013-03-28 12:02:00,
2013-03-28 05:11:00,41.0,40.0,30.02,North,-999,0.0,0.0,96,0.00,,,0.00,,2013-03-28 12:11:00,
2013-03-28 05:22:00,41.0,40.0,30.02,North,-999,0.0,0.0,96,0.00,,,0.00,,2013-03-28 12:22:00,
2013-03-28 05:32:00,40.0,39.0,30.03,North,-999,0.0,0.0,96,0.00,,,0.00,,2013-03-28 12:32:00,
2013-03-28 05:41:00,40.0,39.0,30.03,North,-999,0.0,0.0,96,0.00,,,0.00,,2013-03-28 12:41:00,
2013-03-28 05:51:00,40.0,39.0,30.03,North,-999,0.0,0.0,96,0.00,,,0.00,,2013-03-28 12:51:00,
2013-03-28 06:02:00,40.0,39.0,30.03,North,-999,0.0,0.0,97,0.00,,,0.00,,2013-03-28 13:02:00,
2013-03-28 06:11:00,40.0,39.0,30.03,North,-999,0.0,0.0,97,0.00,,,0.00,,2013-03-28 13:11:00,
2013-03-28 06:21:00,40.0,39.0,30.03,North,-999,0.0,0.0,97,0.00,,,0.00,,2013-03-28 13:21:00,
2013-03-28 06:32:00,42.0,41.0,30.05,North,-999,0.0,0.0,96,0.00,,,0.00,,2013-03-28 13:32:00,
2013-03-28 06:41:00,42.0,41.0,30.05,North,-999,0.0,0.0,96,0.00,,,0.00,,2013-03-28 13:41:00,
2013-03-28 06:52:00,42.0,41.0,30.05,North,-999,0.0,0.0,95,0.00,,,0.00,,2013-03-28 13:52:00,
2013-03-28 07:02:00,41.0,40.0,30.06,North,-999,0.0,0.0,96,0.00,,,0.00,,2013-03-28 14:02:00,
2013-03-28 07:11:00,41.0,40.0,30.06,North,-999,0.0,0.0,96,0.00,,,0.00,,2013-03-28 14:11:00,
2013-03-28 07:22:00,41.0,40.0,30.06,North,-999,0.0,0.0,96,0.00,,,0.00,,2013-03-28 14:22:00,
2013-03-28 07:32:00,41.0,40.0,30.07,North,-999,0.0,0.0,97,0.00,,,0.00,,2013-03-28 14:32:00,
2013-03-28 07:42:00,41.0,40.0,30.07,North,-999,0.0,0.0,97,0.00,,,0.00,,2013-03-28 14:42:00,
2013-03-28 07:51:00,41.0,40.0,30.07,North,-999,0.0,0.0,97,0.00,,,0.00,,2013-03-28 14:51:00,
2013-03-28 08:01:00,42.0,41.0,30.08,ESE,112,0.0,1.0,96,0.00,,,0.00,,2013-03-28 15:01:00,
2013-03-28 08:11:00,42.0,41.0,30.08,ESE,112,0.0,1.0,96,0.00,,,0.00,,2013-03-28 15:11:00,
2013-03-28 08:21:00,43.0,42.0,30.08,North,-999,0.0,0.0,96,0.00,,,0.00,,2013-03-28 15:21:00,
2013-03-28 08:32:00,44.0,43.0,30.08,North,-999,0.0,0.0,96,0.00,,,0.00,,2013-03-28 15:32:00,
2013-03-28 08:42:00,44.0,43.0,30.08,North,-999,0.0,0.0,96,0.00,,,0.00,,2013-03-28 15:42:00,
2013-03-28 08:52:00,45.0,44.0,30.08,North,-999,0.0,0.0,95,0.00,,,0.00,,2013-03-28 15:52:00,
2013-03-28 09:02:00,46.0,44.0,30.08,East,90,0.0,1.0,93,0.00,,,0.00,,2013-03-28 16:02:00,
2013-03-28 09:12:00,46.0,44.0,30.08,East,90,0.0,1.0,93,0.00,,,0.00,,2013-03-28 16:12:00,
2013-03-28 09:22:00,46.0,44.0,30.08,North,-999,0.0,0.0,93,0.00,,,0.00,,2013-03-28 16:22:00,
2013-03-28 09:32:00,48.0,46.0,30.08,North,-999,0.0,0.0,92,0.00,,,0.00,,2013-03-28 16:32:00,
2013-03-28 09:41:00,48.0,46.0,30.08,North,-999,0.0,0.0,92,0.00,,,0.00,,2013-03-28 16:41:00,
2013-03-28 09:51:00,48.0,45.0,30.08,North,-999,0.0,0.0,89,0.00,,,0.00,,2013-03-28 16:51:00,
2013-03-28 10:02:00,49.0,45.0,30.09,North,-999,0.0,0.0,87,0.00,,,0.00,,2013-03-28 17:02:00,
2013-03-28 10:12:00,49.0,45.0,30.09,North,-999,0.0,0.0,87,0.00,,,0.00,,2013-03-28 17:12:00,
2013-03-28 10:21:00,49.0,45.0,30.09,NNE,22,0.0,1.0,86,0.00,,,0.00,,2013-03-28 17:21:00,
2013-03-28 10:32:00,50.0,45.0,30.09,North,-999,0.0,0.0,84,0.00,,,0.00,,2013-03-28 17:32:00,
2013-03-28 10:42:00,50.0,45.0,30.09,North,-999,0.0,0.0,84,0.00,,,0.00,,2013-03-28 17:42:00,
2013-03-28 10:52:00,50.0,46.0,30.10,NNE,22,0.0,1.0,85,0.00,,,0.00,,2013-03-28 17:52:00,
2013-03-28 11:02:00,52.0,47.0,30.10,NNE,22,1.0,2.0,82,0.00,,,0.00,,2013-03-28 18:02:00,
2013-03-28 11:12:00,52.0,47.0,30.10,NNE,22,1.0,2.0,82,0.00,,,0.00,,2013-03-28 18:12:00,
2013-03-28 11:21:00,52.0,47.0,30.10,NNE,22,1.0,2.0,82,0.00,,,0.00,,2013-03-28 18:21:00,
2013-03-28 11:32:00,53.0,46.0,30.11,NE,45,0.0,1.0,78,0.00,,,0.00,,2013-03-28 18:32:00,
2013-03-28 11:41:00,53.0,46.0,30.11,NE,45,0.0,1.0,78,0.00,,,0.00,,2013-03-28 18:41:00,
2013-03-28 11:52:00,53.0,46.0,30.11,NE,45,0.0,2.0,77,0.00,,,0.00,,2013-03-28 18:52:00,
2013-03-28 12:02:00,54.0,47.0,30.11,West,270,1.0,6.0,77,0.00,,,0.00,,2013-03-28 19:02:00,
2013-03-28 12:11:00,54.0,47.0,30.11,West,270,1.0,6.0,77,0.00,,,0.00,,2013-03-28 19:11:00,
2013-03-28 12:22:00,54.0,47.0,30.10,ENE,67,1.0,3.0,77,0.00,,,0.00,,2013-03-28 19:22:00,
2013-03-28 12:32:00,55.0,47.0,30.10,SE,135,0.0,2.0,73,0.00,,,0.00,,2013-03-28 19:32:00,
2013-03-28 12:42:00,55.0,47.0,30.10,SE,135,0.0,2.0,73,0.00,,,0.00,,2013-03-28 19:42:00,
2013-03-28 12:52:00,55.0,46.0,30.10,ENE,67,0.0,2.0,72,0.00,,,0.00,,2013-03-28 19:52:00,
2013-03-28 13:02:00,55.0,46.0,30.10,ENE,67,0.0,2.0,72,0.00,,,0.00,,2013-03-28 20:02:00,
2013-03-28 13:11:00,55.0,46.0,30.10,ENE,67,0.0,2.0,72,0.00,,,0.00,,2013-03-28 20:11:00,
2013-03-28 13:21:00,57.0,48.0,30.09,ENE,67,1.0,4.0,71,0.00,,,0.00,,2013-03-28 20:21:00,
2013-03-28 13:32:00,57.0,47.0,30.09,WNW,292,1.0,2.0,70,0.00,,,0.00,,2013-03-28 20:32:00,
2013-03-28 13:42:00,57.0,47.0,30.09,WNW,292,1.0,2.0,70,0.00,,,0.00,,2013-03-28 20:42:00,
2013-03-28 13:53:00,58.0,45.0,30.09,NNW,337,1.0,3.0,62,0.00,,,0.00,,2013-03-28 20:53:00,
2013-03-28 14:01:00,58.0,45.0,30.09,South,180,0.0,2.0,62,0.00,,,0.00,,2013-03-28 21:01:00,
2013-03-28 14:11:00,58.0,45.0,30.09,South,180,0.0,2.0,62,0.00,,,0.00,,2013-03-28 21:11:00,
2013-03-28 14:22:00,59.0,45.0,30.08,WNW,292,2.0,5.0,60,0.00,,,0.00,,2013-03-28 21:22:00,
2013-03-28 14:32:00,60.0,45.0,30.08,NNE,22,1.0,4.0,57,0.00,,,0.00,,2013-03-28 21:32:00,
2013-03-28 14:42:00,60.0,45.0,30.08,NNE,22,1.0,4.0,57,0.00,,,0.00,,2013-03-28 21:42:00,
2013-03-28 14:53:00,59.0,46.0,30.08,North,-999,0.0,0.0,63,0.00,,,0.00,,2013-03-28 21:53:00,
2013-03-28 15:02:00,59.0,46.0,30.08,North,-999,0.0,0.0,63,0.00,,,0.00,,2013-03-28 22:02:00,
2013-03-28 15:12:00,59.0,46.0,30.08,North,-999,0.0,0.0,63,0.00,,,0.00,,2013-03-28 22:12:00,
2013-03-28 15:22:00,59.0,48.0,30.08,NE,45,0.0,2.0,67,0.00,,,0.00,,2013-03-28 22:22:00,
2013-03-28 15:32:00,62.0,49.0,30.08,North,0,1.0,3.0,63,0.00,,,0.00,,2013-03-28 22:32:00,
2013-03-28 15:42:00,62.0,49.0,30.08,North,0,1.0,3.0,63,0.00,,,0.00,,2013-03-28 22:42:00,
2013-03-28 15:52:00,61.0,48.0,30.07,NNW,337,1.0,3.0,63,0.00,,,0.00,,2013-03-28 22:52:00,
2013-03-28 16:01:00,62.0,48.0,30.07,NNE,22,0.0,3.0,61,0.00,,,0.00,,2013-03-28 23:01:00,
2013-03-28 16:12:00,62.0,48.0,30.07,NNE,22,0.0,3.0,61,0.00,,,0.00,,2013-03-28 23:12:00,
2013-03-28 16:21:00,61.0,48.0,30.07,NNE,22,1.0,4.0,63,0.00,,,0.00,,2013-03-28 23:21:00,
2013-03-28 16:32:00,61.0,49.0,30.07,NE,45,0.0,2.0,64,0.00,,,0.00,,2013-03-28 23:32:00,
2013-03-28 16:42:00,61.0,49.0,30.07,NE,45,0.0,2.0,64,0.00,,,0.00,,2013-03-28 23:42:00,
2013-03-28 16:52:00,61.0,47.0,30.07,ENE,67,0.0,2.0,61,0.00,,,0.00,,2013-03-28 23:52:00,
2013-03-28 17:02:00,61.0,47.0,30.07,WSW,247,0.0,2.0,60,0.00,,,0.00,,2013-03-29 00:02:00,
2013-03-28 17:11:00,61.0,47.0,30.07,WSW,247,0.0,2.0,60,0.00,,,0.00,,2013-03-29 00:11:00,
2013-03-28 17:22:00,60.0,47.0,30.08,North,0,0.0,2.0,61,0.00,,,0.00,,2013-03-29 00:22:00,
2013-03-28 17:32:00,60.0,47.0,30.08,North,0,0.0,2.0,61,0.00,,,0.00,,2013-03-29 00:32:00,
2013-03-28 17:42:00,60.0,47.0,30.08,North,0,0.0,2.0,61,0.00,,,0.00,,2013-03-29 00:42:00,
2013-03-28 17:52:00,59.0,48.0,30.08,West,270,0.0,1.0,66,0.00,,,0.00,,2013-03-29 00:52:00,
2013-03-28 18:02:00,59.0,48.0,30.08,North,-999,0.0,0.0,67,0.00,,,0.00,,2013-03-29 01:02:00,
2013-03-28 18:12:00,59.0,48.0,30.08,North,-999,0.0,0.0,67,0.00,,,0.00,,2013-03-29 01:12:00,
2013-03-28 18:22:00,57.0,48.0,30.08,North,-999,0.0,0.0,72,0.00,,,0.00,,2013-03-29 01:22:00,
2013-03-28 18:31:00,57.0,48.0,30.08,North,-999,0.0,0.0,72,0.00,,,0.00,,2013-03-29 01:31:00,
2013-03-28 18:42:00,57.0,48.0,30.08,North,-999,0.0,0.0,72,0.00,,,0.00,,2013-03-29 01:42:00,
2013-03-28 18:52:00,56.0,46.0,30.08,SW,225,0.0,2.0,68,0.00,,,0.00,,2013-03-29 01:52:00,
2013-03-28 19:02:00,56.0,46.0,30.08,North,-999,0.0,0.0,69,0.00,,,0.00,,2013-03-29 02:02:00,
2013-03-28 19:11:00,56.0,46.0,30.08,North,-999,0.0,0.0,69,0.00,,,0.00,,2013-03-29 02:11:00,
2013-03-28 19:21:00,55.0,46.0,30.08,North,-999,0.0,0.0,72,0.00,,,0.00,,2013-03-29 02:21:00,
2013-03-28 19:31:00,55.0,46.0,30.09,North,-999,0.0,0.0,71,0.00,,,0.00,,2013-03-29 02:31:00,
2013-03-28 19:41:00,55.0,46.0,30.09,North,-999,0.0,0.0,71,0.00,,,0.00,,2013-03-29 02:41:00,
2013-03-28 19:52:00,54.0,46.0,30.09,North,-999,0.0,0.0,73,0.00,,,0.00,,2013-03-29 02:52:00,
2013-03-28 20:01:00,54.0,46.0,30.09,North,-999,0.0,0.0,75,0.00,,,0.00,,2013-03-29 03:01:00,
2013-03-28 20:11:00,54.0,46.0,30.09,North,-999,0.0,0.0,75,0.00,,,0.00,,2013-03-29 03:11:00,
2013-03-28 20:21:00,53.0,45.0,30.10,SSW,202,0.0,1.0,74,0.00,,,0.00,,2013-03-29 03:21:00,
2013-03-28 20:32:00,53.0,45.0,30.10,North,-999,0.0,0.0,75,0.00,,,0.00,,2013-03-29 03:32:00,
2013-03-28 20:42:00,53.0,45.0,30.10,North,-999,0.0,0.0,75,0.00,,,0.00,,2013-03-29 03:42:00,
2013-03-28 20:53:00,53.0,47.0,30.11,North,-999,0.0,0.0,79,0.00,,,0.00,,2013-03-29 03:53:00,
2013-03-28 21:02:00,52.0,46.0,30.11,North,-999,0.0,0.0,80,0.00,,,0.00,,2013-03-29 04:02:00,
2013-03-28 21:12:00,52.0,46.0,30.11,North,-999,0.0,0.0,80,0.00,,,0.00,,2013-03-29 04:12:00,
2013-03-28 21:22:00,52.0,46.0,30.11,North,-999,0.0,0.0,79,0.00,,,0.00,,2013-03-29 04:22:00,
2013-03-28 21:32:00,52.0,48.0,30.13,North,-999,0.0,0.0,86,0.00,,,0.00,,2013-03-29 04:32:00,
2013-03-28 21:42:00,52.0,48.0,30.13,North,-999,0.0,0.0,86,0.00,,,0.00,,2013-03-29 04:42:00,
2013-03-28 21:52:00,50.0,48.0,30.14,North,-999,0.0,0.0,93,0.03,,,0.03,,2013-03-29 04:52:00,
2013-03-28 22:02:00,50.0,48.0,30.14,North,-999,0.0,0.0,94,0.05,,,0.05,,2013-03-29 05:02:00,
2013-03-28 22:12:00,50.0,48.0,30.14,North,-999,0.0,0.0,94,0.05,,,0.05,,2013-03-29 05:12:00,
2013-03-28 22:22:00,49.0,48.0,30.14,North,-999,0.0,0.0,96,0.08,,,0.08,,2013-03-29 05:22:00,
2013-03-28 22:32:00,49.0,48.0,30.14,North,-999,0.0,0.0,96,0.08,,,0.08,,2013-03-29 05:32:00,
2013-03-28 22:42:00,49.0,48.0,30.14,North,-999,0.0,0.0,96,0.08,,,0.08,,2013-03-29 05:42:00,
2013-03-28 22:52:00,48.0,47.0,30.14,North,-999,0.0,0.0,97,0.05,,,0.08,,2013-03-29 05:52:00,
2013-03-28 23:01:00,48.0,47.0,30.15,North,-999,0.0,0.0,97,0.04,,,0.09,,2013-03-29 06:01:00,
2013-03-28 23:12:00,48.0,47.0,30.15,North,-999,0.0,0.0,97,0.04,,,0.09,,2013-03-29 06:12:00,
2013-03-28 23:22:00,48.0,47.0,30.15,North,-999,0.0,0.0,97,0.04,,,0.09,,2013-03-29 06:22:00,
2013-03-28 23:32:00,48.0,47.0,30.15,North,-999,0.0,0.0,98,0.01,,,0.09,,2013-03-29 06:32:00,
2013-03-28 23:41:00,48.0,47.0,30.15,North,-999,0.0,0.0,98,0.01,,,0.09,,2013-03-29 06:41:00,
2013-03-28 23:52:00,47.0,46.0,30.15,North,-999,0.0,0.0,98,0.01,,,0.09,,2013-03-29 06:52:00,